createdAt,value
2019-03-23T00:01:33.740Z,102299.31
2019-03-23T00:04:40.567Z,102281.27
2019-03-23T00:07:47.689Z,102285.95
2019-03-23T00:10:54.473Z,102272.72
2019-03-23T00:14:01.307Z,102276.41
2019-03-23T00:17:08.246Z,102269.73
2019-03-23T00:20:15.132Z,102260.61
2019-03-23T00:23:22.044Z,102252.72
2019-03-23T00:26:28.941Z,102253.44
2019-03-23T00:29:36.929Z,102169.91
2019-03-23T00:32:43.800Z,102229.32
2019-03-23T00:35:50.647Z,102206.87
2019-03-23T00:38:57.727Z,102195.83
2019-03-23T00:42:04.673Z,102199.23
2019-03-23T00:45:11.650Z,102203.52
2019-03-23T00:48:18.458Z,102194.29
2019-03-23T00:51:25.420Z,102192.42
2019-03-23T00:54:33.451Z,102185.80
2019-03-23T00:57:40.771Z,102178.54
2019-03-23T01:00:48.146Z,102163.52
2019-03-23T01:03:55.036Z,102170.41
2019-03-23T01:07:02.036Z,102161.34
2019-03-23T01:10:10.193Z,102153.84
2019-03-23T01:13:17.053Z,102142.26
2019-03-23T01:16:24.208Z,102152.98
2019-03-23T01:19:31.098Z,102140.41
2019-03-23T01:22:38.016Z,102140.38
2019-03-23T01:25:45.956Z,102134.44
2019-03-23T01:28:53.077Z,102137.83
2019-03-23T01:32:00.014Z,102135.46
2019-03-23T01:35:07.806Z,102124.03
2019-03-23T01:38:14.573Z,102111.09
2019-03-23T01:41:22.344Z,102112.80
2019-03-23T01:44:30.123Z,102031.22
2019-03-23T01:47:37.127Z,102091.22
2019-03-23T01:50:43.992Z,102099.98
2019-03-23T01:53:50.966Z,102099.70
2019-03-23T01:56:58.110Z,102092.41
2019-03-23T02:00:06.306Z,102101.78
2019-03-23T02:03:13.309Z,102069.30
2019-03-23T02:06:20.438Z,102062.65
2019-03-23T02:09:27.329Z,102054.83
2019-03-23T02:12:34.710Z,102054.28
2019-03-23T02:15:41.487Z,102052.96
2019-03-23T02:18:48.416Z,102037.98
2019-03-23T02:21:55.326Z,102045.51
2019-03-23T02:25:02.657Z,102028.00
2019-03-23T02:28:09.505Z,102028.78
2019-03-23T02:31:16.461Z,102013.38
2019-03-23T02:34:23.358Z,102014.24
2019-03-23T02:37:30.262Z,102010.34
2019-03-23T02:40:37.140Z,101992.21
2019-03-23T02:43:44.111Z,101983.63
2019-03-23T02:46:51.137Z,101978.75
2019-03-23T02:49:58.437Z,101972.04
2019-03-23T02:53:05.302Z,101960.25
2019-03-23T02:56:12.300Z,101956.91
2019-03-23T02:59:19.323Z,101936.95
2019-03-23T03:02:26.646Z,101930.85
2019-03-23T03:05:34.757Z,101927.61
2019-03-23T03:08:41.751Z,101919.61
2019-03-23T03:11:48.598Z,101931.92
2019-03-23T03:14:55.615Z,101919.52
2019-03-23T03:18:02.497Z,101898.48
2019-03-23T03:21:09.438Z,101898.48
2019-03-23T03:24:16.393Z,101892.44
2019-03-23T03:27:23.383Z,101886.55
2019-03-23T03:30:30.260Z,101872.89
2019-03-23T03:33:37.073Z,101873.52
2019-03-23T03:36:44.085Z,101865.58
2019-03-23T03:39:51.114Z,101863.86
2019-03-23T03:42:58.283Z,101865.89
2019-03-23T03:46:05.285Z,101858.62
2019-03-23T03:49:13.119Z,101850.01
2019-03-23T03:52:21.022Z,101853.90
2019-03-23T03:55:27.825Z,101844.09
2019-03-23T03:58:34.899Z,101835.64
2019-03-23T04:01:41.745Z,101856.23
2019-03-23T04:04:49.313Z,101842.88
2019-03-23T04:08:09.889Z,101831.19
2019-03-23T04:11:04.824Z,101816.68
2019-03-23T04:14:11.817Z,101806.89
2019-03-23T04:17:19.094Z,101797.75
2019-03-23T04:20:25.955Z,101796.44
2019-03-23T04:23:32.911Z,101795.08
2019-03-23T04:26:39.875Z,101778.85
2019-03-23T04:29:46.795Z,101745.73
2019-03-23T04:32:53.647Z,101745.73
2019-03-23T04:36:00.853Z,101762.34
2019-03-23T04:39:08.295Z,101755.40
2019-03-23T04:42:15.336Z,101738.33
2019-03-23T04:45:22.124Z,101744.61
2019-03-23T04:48:29.049Z,101729.22
2019-03-23T04:51:36.025Z,101729.89
2019-03-23T04:54:43.178Z,101722.80
2019-03-23T04:57:50.086Z,101713.71
2019-03-23T05:00:57.487Z,101738.73
2019-03-23T05:04:04.475Z,101704.37
2019-03-23T05:07:12.619Z,101704.08
2019-03-23T05:10:19.419Z,101705.44
2019-03-23T05:13:26.341Z,101694.08
2019-03-23T05:16:33.261Z,101687.33
2019-03-23T05:19:40.398Z,101701.17
2019-03-23T05:22:47.331Z,101713.27
2019-03-23T05:25:54.245Z,101703.64
2019-03-23T05:29:01.080Z,101692.77
2019-03-23T05:32:08.413Z,101711.75
2019-03-23T05:35:15.277Z,101698.21
2019-03-23T05:38:22.145Z,101705.66
2019-03-23T05:41:30.884Z,101697.51
2019-03-23T05:44:40.075Z,101689.75
2019-03-23T05:47:46.965Z,101693.82
2019-03-23T05:50:54.005Z,101696.20
2019-03-23T05:54:01.027Z,101691.77
2019-03-23T05:57:08.786Z,101689.08
2019-03-23T06:00:18.541Z,101684.67
2019-03-23T06:03:25.343Z,101682.66
2019-03-23T06:06:32.297Z,101680.97
2019-03-23T06:09:40.810Z,101696.52
2019-03-23T06:12:48.097Z,101675.20
2019-03-23T06:15:55.299Z,101604.06
2019-03-23T06:19:02.371Z,101678.92
2019-03-23T06:22:10.102Z,101660.64
2019-03-23T06:25:16.940Z,101665.72
2019-03-23T06:28:23.960Z,101644.70
2019-03-23T06:31:31.156Z,101645.73
2019-03-23T06:34:38.168Z,101650.11
2019-03-23T06:37:46.220Z,101631.83
2019-03-23T06:40:55.138Z,101656.41
2019-03-23T06:44:02.180Z,101599.67
2019-03-23T06:47:09.980Z,101620.64
2019-03-23T06:50:16.864Z,101616.92
2019-03-23T06:53:23.819Z,101608.47
2019-03-23T06:56:30.806Z,101610.47
2019-03-23T06:59:37.795Z,101604.02
2019-03-23T07:02:44.668Z,101608.79
2019-03-23T07:05:51.519Z,101588.25
2019-03-23T07:09:00.562Z,101589.11
2019-03-23T07:12:08.003Z,101591.10
2019-03-23T07:15:20.276Z,101589.09
2019-03-23T07:18:24.010Z,101585.38
2019-03-23T07:21:34.418Z,101593.50
2019-03-23T07:24:45.257Z,101581.30
2019-03-23T07:27:52.191Z,101574.38
2019-03-23T07:30:59.238Z,101565.02
2019-03-23T07:34:06.329Z,101573.32
2019-03-23T07:37:13.506Z,101576.19
2019-03-23T07:40:22.055Z,101570.75
2019-03-23T07:43:29.035Z,101581.89
2019-03-23T07:46:36.061Z,101507.44
2019-03-23T07:49:43.088Z,101567.47
2019-03-23T07:52:50.102Z,101570.84
2019-03-23T07:55:58.757Z,101569.30
2019-03-23T07:59:07.552Z,101597.16
2019-03-23T08:02:14.754Z,101587.61
2019-03-23T08:05:23.162Z,101599.44
2019-03-23T08:08:30.238Z,101583.53
2019-03-23T08:11:37.282Z,101584.55
2019-03-23T08:14:45.454Z,101582.50
2019-03-23T08:17:52.266Z,101581.83
2019-03-23T08:21:00.118Z,101594.52
2019-03-23T08:24:07.296Z,101588.90
2019-03-23T08:27:18.846Z,101586.50
2019-03-23T08:30:27.239Z,101572.89
2019-03-23T08:33:34.888Z,101580.64
2019-03-23T08:36:41.874Z,101571.53
2019-03-23T08:39:51.451Z,101576.22
2019-03-23T08:42:58.683Z,101565.66
2019-03-23T08:46:10.707Z,101560.50
2019-03-23T08:49:19.134Z,101568.64
2019-03-23T08:52:26.250Z,101552.70
2019-03-23T08:55:36.088Z,101553.70
2019-03-23T08:58:41.074Z,101561.60
2019-03-23T09:01:48.133Z,101552.48
2019-03-23T09:04:55.156Z,101554.30
2019-03-23T09:08:03.434Z,101551.66
2019-03-23T09:11:20.159Z,101558.46
2019-03-23T09:14:19.188Z,101558.17
2019-03-23T09:17:26.334Z,101551.31
2019-03-23T09:20:33.209Z,101560.62
2019-03-23T09:23:40.357Z,101544.92
2019-03-23T09:26:47.380Z,101552.02
2019-03-23T09:29:54.562Z,101551.06
2019-03-23T09:33:01.513Z,101549.77
2019-03-23T09:36:08.378Z,101548.26
2019-03-23T09:39:15.345Z,101544.05
2019-03-23T09:42:22.463Z,101548.59
2019-03-23T09:45:29.371Z,101552.23
2019-03-23T09:48:37.576Z,101545.36
2019-03-23T09:51:45.476Z,101534.05
2019-03-23T09:54:52.777Z,101517.77
2019-03-23T09:57:59.651Z,101519.58
2019-03-23T10:01:07.686Z,101499.70
2019-03-23T10:04:14.630Z,101493.86
2019-03-23T10:07:21.537Z,101482.90
2019-03-23T10:10:28.422Z,101479.22
2019-03-23T10:13:36.162Z,101476.20
2019-03-23T10:16:43.124Z,101475.28
2019-03-23T10:19:51.657Z,101464.56
2019-03-23T10:22:58.479Z,101462.04
2019-03-23T10:26:06.565Z,101459.32
2019-03-23T10:29:14.656Z,101459.23
2019-03-23T10:32:21.999Z,101420.90
2019-03-23T10:35:29.397Z,101442.67
2019-03-23T10:38:42.367Z,101456.69
2019-03-23T10:41:52.022Z,101459.81
2019-03-23T10:44:59.308Z,101465.25
2019-03-23T10:48:06.264Z,101467.52
2019-03-23T10:51:14.786Z,101454.56
2019-03-23T10:54:21.761Z,101446.71
2019-03-23T10:57:29.375Z,101443.77
2019-03-23T11:00:36.605Z,101448.99
2019-03-23T11:03:43.485Z,101439.88
2019-03-23T11:06:50.978Z,101431.59
2019-03-23T11:10:00.717Z,101446.11
2019-03-23T11:13:09.185Z,101427.97
2019-03-23T11:16:16.246Z,101432.77
2019-03-23T11:19:23.189Z,101432.23
2019-03-23T11:22:32.283Z,101434.81
2019-03-23T11:25:39.152Z,101441.98
2019-03-23T11:28:46.468Z,101442.56
2019-03-23T11:31:53.426Z,101445.69
2019-03-23T11:35:00.605Z,101426.66
2019-03-23T11:38:07.454Z,101426.66
2019-03-23T11:41:14.387Z,101418.39
2019-03-23T11:44:21.517Z,101429.68
2019-03-23T11:47:28.548Z,101420.14
2019-03-23T11:50:35.539Z,101424.61
2019-03-23T11:53:42.665Z,101441.13
2019-03-23T11:56:49.761Z,101426.18
2019-03-23T11:59:56.755Z,101447.01
2019-03-23T12:03:03.631Z,101451.45
2019-03-23T12:06:11.474Z,101433.23
2019-03-23T12:09:18.516Z,101438.50
2019-03-23T12:12:25.402Z,101432.36
2019-03-23T12:15:32.459Z,101421.51
2019-03-23T12:18:39.575Z,101451.44
2019-03-23T12:21:50.752Z,101433.22
2019-03-23T12:24:57.645Z,101438.11
2019-03-23T12:28:04.538Z,101431.83
2019-03-23T12:31:11.595Z,101432.23
2019-03-23T12:34:18.601Z,101429.52
2019-03-23T12:37:26.013Z,101426.37
2019-03-23T12:40:36.391Z,101417.19
2019-03-23T12:43:43.228Z,101420.81
2019-03-23T12:46:50.324Z,101421.93
2019-03-23T12:49:57.320Z,101419.66
2019-03-23T12:53:04.191Z,101423.30
2019-03-23T12:56:12.499Z,101425.92
2019-03-23T12:59:19.527Z,101439.80
2019-03-23T13:02:26.638Z,101415.73
2019-03-23T13:05:33.661Z,101419.30
2019-03-23T13:08:43.591Z,101428.51
2019-03-23T13:11:52.102Z,101445.96
2019-03-23T13:14:59.123Z,101435.81
2019-03-23T13:18:06.033Z,101439.61
2019-03-23T13:21:13.125Z,101431.73
2019-03-23T13:24:20.116Z,101431.73
2019-03-23T13:27:28.540Z,101441.52
2019-03-23T13:30:35.556Z,101448.08
2019-03-23T13:33:50.387Z,101430.69
2019-03-23T13:37:00.365Z,101441.27
2019-03-23T13:40:13.273Z,101433.16
2019-03-23T13:43:20.192Z,101424.53
2019-03-23T13:46:27.113Z,101423.89
2019-03-23T13:49:34.142Z,101406.90
2019-03-23T13:52:41.162Z,101406.90
2019-03-23T13:55:48.073Z,101417.83
2019-03-23T13:58:55.136Z,101411.08
2019-03-23T14:02:02.212Z,101411.08
2019-03-23T14:05:16.039Z,101416.13
2019-03-23T14:08:18.129Z,101409.36
2019-03-23T14:11:25.098Z,101407.07
2019-03-23T14:14:33.403Z,101423.77
2019-03-23T14:17:40.465Z,101412.72
2019-03-23T14:20:47.453Z,101410.48
2019-03-23T14:23:55.463Z,101400.77
2019-03-23T14:27:02.359Z,101401.52
2019-03-23T14:30:09.535Z,101402.31
2019-03-23T14:33:16.421Z,101402.23
2019-03-23T14:36:23.454Z,101400.41
2019-03-23T14:39:31.246Z,101407.38
2019-03-23T14:42:38.569Z,101387.19
2019-03-23T14:45:46.249Z,101406.58
2019-03-23T14:48:53.715Z,101404.48
2019-03-23T14:52:01.055Z,101421.16
2019-03-23T14:55:08.264Z,101412.55
2019-03-23T14:58:15.068Z,101412.55
2019-03-23T15:01:22.053Z,101410.05
2019-03-23T15:04:28.980Z,101417.30
2019-03-23T15:07:37.041Z,101420.86
2019-03-23T15:10:43.973Z,101415.92
2019-03-23T15:13:55.024Z,101418.41
2019-03-23T15:17:04.496Z,101413.02
2019-03-23T15:20:13.023Z,101436.34
2019-03-23T15:23:19.929Z,101429.66
2019-03-23T15:26:26.948Z,101438.56
2019-03-23T15:29:33.939Z,101432.28
2019-03-23T15:32:41.189Z,101441.86
2019-03-23T15:35:48.978Z,101429.84
2019-03-23T15:38:59.511Z,101439.22
2019-03-23T15:42:06.515Z,101439.22
2019-03-23T15:45:14.470Z,101447.16
2019-03-23T15:48:23.148Z,101439.95
2019-03-23T15:51:30.303Z,101454.79
2019-03-23T15:54:37.675Z,101455.09
2019-03-23T15:57:44.725Z,101450.16
2019-03-23T16:00:51.597Z,101476.67
2019-03-23T16:04:02.307Z,101477.06
2019-03-23T16:07:12.632Z,101472.17
2019-03-23T16:10:19.848Z,101468.94
2019-03-23T16:13:27.321Z,101477.12
2019-03-23T16:16:34.267Z,101477.63
2019-03-23T16:19:41.386Z,101467.37
2019-03-23T16:22:48.385Z,101476.85
2019-03-23T16:25:55.257Z,101484.23
2019-03-23T16:29:02.210Z,101492.03
2019-03-23T16:32:12.229Z,101478.69
2019-03-23T16:35:19.579Z,101486.59
2019-03-23T16:38:29.086Z,101477.84
2019-03-23T16:41:36.529Z,101492.03
2019-03-23T16:44:44.529Z,101485.95
2019-03-23T16:47:56.567Z,101480.73
2019-03-23T16:51:05.133Z,101487.19
2019-03-23T16:54:12.218Z,101487.47
2019-03-23T16:57:19.333Z,101489.63
2019-03-23T17:00:37.161Z,101499.30
2019-03-23T17:03:44.244Z,101483.23
2019-03-23T17:06:51.661Z,101489.16
2019-03-23T17:09:58.861Z,101491.60
2019-03-23T17:13:06.015Z,101490.47
2019-03-23T17:16:13.492Z,101493.52
2019-03-23T17:19:20.662Z,101494.73
2019-03-23T17:22:28.008Z,101489.86
2019-03-23T17:25:37.644Z,101494.87
2019-03-23T17:28:48.930Z,101495.23
2019-03-23T17:31:54.824Z,101496.30
2019-03-23T17:35:02.013Z,101492.59
2019-03-23T17:38:12.570Z,101506.69
2019-03-23T17:41:19.761Z,101525.97
2019-03-23T17:44:26.635Z,101523.81
2019-03-23T17:47:33.674Z,101519.54
2019-03-23T17:50:42.509Z,101522.30
2019-03-23T17:53:58.235Z,101516.11
2019-03-23T17:56:58.211Z,101521.31
2019-03-23T18:00:54.159Z,101522.38
2019-03-23T18:04:09.607Z,101524.64
2019-03-23T18:07:17.363Z,101510.61
2019-03-23T18:10:24.594Z,101518.41
2019-03-23T18:13:31.790Z,101509.91
2019-03-23T18:16:39.238Z,101509.61
2019-03-23T18:19:46.325Z,101514.74
2019-03-23T18:22:53.176Z,101502.56
2019-03-23T18:26:00.458Z,101435.00
2019-03-23T18:29:07.776Z,101515.88
2019-03-23T18:32:15.048Z,101501.10
2019-03-23T18:35:22.148Z,101514.14
2019-03-23T18:38:30.497Z,101519.26
2019-03-23T18:41:37.447Z,101509.45
2019-03-23T18:44:44.395Z,101502.20
2019-03-23T18:47:51.336Z,101508.34
2019-03-23T18:50:58.598Z,101507.17
2019-03-23T18:54:06.082Z,101530.59
2019-03-23T18:57:13.085Z,101535.01
2019-03-23T19:00:33.122Z,101519.07
2019-03-23T19:03:41.826Z,101542.95
2019-03-23T19:06:50.994Z,101539.93
2019-03-23T19:09:57.990Z,101554.03
2019-03-23T19:13:05.829Z,101538.30
2019-03-23T19:16:14.750Z,101543.72
2019-03-23T19:19:25.458Z,101540.00
2019-03-23T19:22:32.322Z,101549.36
2019-03-23T19:25:40.349Z,101545.80
2019-03-23T19:28:47.375Z,101548.01
2019-03-23T19:31:56.229Z,101548.19
2019-03-23T19:35:13.454Z,101557.19
2019-03-23T19:38:22.360Z,101552.45
2019-03-23T19:41:30.893Z,101551.47
2019-03-23T19:44:40.252Z,101554.49
2019-03-23T19:47:47.243Z,101541.30
2019-03-23T19:50:54.255Z,101544.34
2019-03-23T19:54:01.427Z,101557.59
2019-03-23T19:57:08.430Z,101550.80
2019-03-23T20:00:18.679Z,101528.43
2019-03-23T20:03:25.586Z,101526.25
2019-03-23T20:06:32.664Z,101520.33
2019-03-23T20:09:41.082Z,101538.64
2019-03-23T20:12:49.648Z,101535.26
2019-03-23T20:15:56.568Z,101472.68
2019-03-23T20:19:04.031Z,101548.50
2019-03-23T20:22:11.125Z,101546.64
2019-03-23T20:25:18.091Z,101536.30
2019-03-23T20:28:25.163Z,101544.76
2019-03-23T20:31:33.948Z,101542.43
2019-03-23T20:34:43.290Z,101545.14
2019-03-23T20:37:50.204Z,101543.44
2019-03-23T20:40:57.226Z,101549.70
2019-03-23T20:44:09.529Z,101553.27
2019-03-23T20:47:13.686Z,101532.61
2019-03-23T20:50:20.717Z,101532.61
2019-03-23T20:53:27.676Z,101543.30
2019-03-23T20:56:36.181Z,101541.25
2019-03-23T20:59:43.178Z,101546.86
2019-03-23T21:02:50.115Z,101531.95
2019-03-23T21:05:58.428Z,101525.84
2019-03-23T21:09:07.574Z,101542.46
2019-03-23T21:12:14.642Z,101544.48
2019-03-23T21:15:23.772Z,101549.55
2019-03-23T21:18:32.918Z,101535.00
2019-03-23T21:21:39.511Z,101539.06
2019-03-23T21:24:52.045Z,101468.64
2019-03-23T21:27:58.979Z,101529.22
2019-03-23T21:31:08.671Z,101527.03
2019-03-23T21:34:19.350Z,101528.36
2019-03-23T21:37:29.664Z,101531.58
2019-03-23T21:40:45.535Z,101523.11
2019-03-23T21:43:55.361Z,101528.75
2019-03-23T21:47:02.812Z,101532.11
2019-03-23T21:50:11.500Z,101541.05
2019-03-23T21:53:18.462Z,101533.28
2019-03-23T21:56:25.286Z,101519.58
2019-03-23T21:59:32.497Z,101546.14
2019-03-23T22:02:39.382Z,101529.90
2019-03-23T22:05:46.378Z,101529.23
2019-03-23T22:08:53.456Z,101549.16
2019-03-23T22:12:00.595Z,101553.22
2019-03-23T22:15:08.707Z,101544.78
2019-03-23T22:18:15.655Z,101531.05
2019-03-23T22:21:26.203Z,101524.47
2019-03-23T22:24:36.258Z,101522.45
2019-03-23T22:27:49.993Z,101527.34
2019-03-23T22:30:57.505Z,101534.63
2019-03-23T22:34:06.125Z,101536.31
2019-03-23T22:37:13.433Z,101537.32
2019-03-23T22:40:21.430Z,101536.98
2019-03-23T22:43:28.334Z,101539.37
2019-03-23T22:46:35.632Z,101529.53
2019-03-23T22:49:43.263Z,101549.85
2019-03-23T22:52:50.106Z,101560.68
2019-03-23T22:55:57.694Z,101554.56
2019-03-23T22:59:04.620Z,101553.89
2019-03-23T23:02:14.188Z,101535.47
2019-03-23T23:05:23.873Z,101542.39
2019-03-23T23:08:33.774Z,101547.12
2019-03-23T23:11:40.870Z,101555.58
2019-03-23T23:14:49.464Z,101557.45
2019-03-23T23:17:56.399Z,101573.84
2019-03-23T23:21:03.304Z,101569.08
2019-03-23T23:24:10.250Z,101569.94
2019-03-23T23:27:17.245Z,101572.80
2019-03-23T23:30:24.194Z,101576.49
2019-03-23T23:33:31.415Z,101562.41
2019-03-23T23:36:38.352Z,101572.44
2019-03-23T23:39:45.374Z,101570.34
2019-03-23T23:42:54.534Z,101579.67
2019-03-23T23:46:01.400Z,101582.87
2019-03-23T23:49:08.251Z,101584.23
2019-03-23T23:52:16.182Z,101586.22
2019-03-23T23:55:23.048Z,101602.80
2019-03-23T23:58:30.037Z,101594.29
